METAR Data
IDs: Format: Raw Decoded Include TAF

Data at: 2124 UTC 22 Sep 2020

METAR for:KIAD (Washington/Dulles In, VA, US)
Text:KIAD 222052Z 32011KT 10SM CLR 22/06 A3005 RMK AO2 SLP175 T02170056 56034
Temperature: 21.7°C ( 71°F)
Dewpoint: 5.6°C ( 42°F) [RH = 35%]
Pressure (altimeter):30.05 inches Hg (1017.7 mb) [Sea level pressure: 1017.5 mb]
Winds:from the NW (320 degrees) at 13 MPH (11 knots; 5.7 m/s)
Visibility:10 or more sm (16+ km)
Ceiling:at least 12,000 feet AGL
Clouds:sky clear below 12,000 feet AGL